Terminal Aerodrome Forecast
Issued by NWS Mt. Holly, NJ

Home | Current Version | Previous Version | Text Only | Print | Product List | Glossary On
Versions: 1 2 3 4 5 6 7 8 9 10 11 12 13 14 15 16 17 18 19
414
FTUS41 KPHI 232340
TAFRDG
TAF
KRDG 232340Z 2400/2424 14013G25KT P6SM VCSH SCT025 OVC060
      TEMPO 2400/2403 BKN025
     FM240300 14014G28KT P6SM VCSH OVC025
      TEMPO 2403/2406 5SM -SHRA
     FM240600 14017G29KT 5SM SHRA OVC015
     FM240900 16018G38KT 1SM +SHRA OVC008
     FM241100 18013G25KT 2SM +SHRA OVC005 WS020/16040KT
     FM241400 19008KT P6SM VCSH OVC015
     FM242100 18006KT P6SM BKN050=

USA.gov is the U.S. government's official web portal to all federal, state and local government web resources and services.